Time;durP1;ratioP1;P1;durP2;ratioP2;P2;SDS_P1;SDS_P2;PMS_P1;PMS_P2;Temp;Humidity;BMP_temperature;BMP_pressure;BME280_temperature;BME280_humidity;BME280_pressure;Samples;Min_cycle;Max_cycle;Signal;HPM_P1;HPM_P2
2021/05/24 00:00:17;;;;;;;2.53;1.55;;;;;;;7.64;100.00;95866.91;1030932;28;20027;-69
2021/05/24 00:00:48;;;;;;;2.08;1.30;;;;;;;7.62;100.00;95872.41;1026912;28;20034;-68
2021/05/24 00:01:18;;;;;;;1.63;1.30;;;;;;;7.68;100.00;95879.28;1025436;28;20270;-68
2021/05/24 00:01:48;;;;;;;2.75;1.40;;;;;;;7.68;100.00;95876.66;1027285;28;20038;-69
2021/05/24 00:02:19;;;;;;;2.08;1.17;;;;;;;7.66;100.00;95876.09;1035063;28;20076;-69
2021/05/24 00:02:49;;;;;;;1.67;1.20;;;;;;;7.64;100.00;95867.72;1031744;28;20031;-70
2021/05/24 00:03:20;;;;;;;2.88;1.38;;;;;;;7.60;100.00;95860.59;1026504;28;20102;-70
2021/05/24 00:03:50;;;;;;;2.08;1.50;;;;;;;7.68;100.00;95873.25;1032878;28;20029;-69
2021/05/24 00:04:21;;;;;;;2.22;1.30;;;;;;;7.67;100.00;95874.28;1034465;28;20022;-68
2021/05/24 00:04:51;;;;;;;3.58;1.35;;;;;;;7.66;100.00;95863.03;1034597;28;20018;-70
2021/05/24 00:05:23;;;;;;;2.03;0.95;;;;;;;7.67;100.00;95864.63;1038642;28;20047;-69
2021/05/24 00:05:54;;;;;;;2.50;1.30;;;;;;;7.66;100.00;95870.88;1038152;28;20021;-69
2021/05/24 00:06:24;;;;;;;3.05;1.25;;;;;;;7.60;100.00;95858.78;1038436;28;20264;-69
2021/05/24 00:06:55;;;;;;;4.15;1.98;;;;;;;7.66;100.00;95870.88;1030855;28;20018;-69
2021/05/24 00:07:25;;;;;;;1.60;1.15;;;;;;;7.64;100.00;95859.88;1034445;28;20084;-69
2021/05/24 00:07:56;;;;;;;1.77;1.63;;;;;;;7.68;100.00;95871.44;1030188;28;20030;-69
2021/05/24 00:08:29;;;;;;;1.80;1.17;;;;;;;7.68;100.00;95870.63;1034843;28;20026;-68
2021/05/24 00:08:59;;;;;;;2.90;1.27;;;;;;;7.68;100.00;95863.59;1034387;28;20261;-69
2021/05/24 00:09:30;;;;;;;1.40;1.10;;;;;;;7.69;100.00;95859.16;1035405;28;20181;-69
2021/05/24 00:10:00;;;;;;;2.25;1.17;;;;;;;7.58;100.00;95845.19;1030296;28;20412;-69
2021/05/24 00:10:32;;;;;;;2.63;1.30;;;;;;;7.67;100.00;95861.22;1027942;28;20019;-68
2021/05/24 00:11:03;;;;;;;2.10;1.23;;;;;;;7.62;100.00;95856.72;1034621;28;20620;-71
2021/05/24 00:11:33;;;;;;;3.08;1.50;;;;;;;7.67;100.00;95856.00;1030702;28;20332;-68
2021/05/24 00:12:05;;;;;;;1.65;1.33;;;;;;;7.67;100.00;95866.44;1034766;28;20343;-68
2021/05/24 00:12:35;;;;;;;2.85;1.10;;;;;;;7.67;100.00;95862.00;1034314;28;20072;-68
2021/05/24 00:13:08;;;;;;;3.80;1.38;;;;;;;7.61;100.00;95855.13;1026886;28;20825;-69
2021/05/24 00:13:45;;;;;;;2.35;1.45;;;;;;;7.59;100.00;95854.59;1030668;28;20022;-69
2021/05/24 00:14:18;;;;;;;1.88;1.30;;;;;;;7.63;100.00;95862.75;1022579;28;20263;-69
2021/05/24 00:14:48;;;;;;;2.17;1.20;;;;;;;7.64;100.00;95857.25;1026357;28;20286;-71
2021/05/24 00:15:24;;;;;;;2.35;1.40;;;;;;;7.59;100.00;95854.59;1030490;28;20320;-69
2021/05/24 00:15:56;;;;;;;3.08;0.95;;;;;;;7.62;100.00;95856.72;1029714;28;20065;-68
2021/05/24 00:16:26;;;;;;;3.72;1.63;;;;;;;7.61;100.00;95849.91;1031104;28;20276;-68
2021/05/24 00:16:57;;;;;;;1.63;1.05;;;;;;;7.60;100.00;95845.72;1034503;28;20268;-68
2021/05/24 00:17:27;;;;;;;2.47;1.30;;;;;;;7.57;100.00;95844.38;1031354;28;20018;-68
2021/05/24 00:17:58;;;;;;;2.70;1.50;;;;;;;7.61;100.00;95851.72;1026162;28;20026;-69
2021/05/24 00:18:28;;;;;;;3.08;1.35;;;;;;;7.47;100.00;95830.41;1026062;28;20073;-71
2021/05/24 00:18:59;;;;;;;2.55;1.05;;;;;;;7.59;100.00;95854.59;1026602;28;20560;-69
2021/05/24 00:19:29;;;;;;;1.58;1.08;;;;;;;7.60;100.00;95856.16;1026265;28;20429;-69
2021/05/24 00:20:00;;;;;;;2.10;1.00;;;;;;;7.62;100.00;95854.13;1026450;28;20019;-68
2021/05/24 00:20:35;;;;;;;1.45;1.13;;;;;;;7.62;100.00;95854.13;1034151;28;20042;-68
2021/05/24 00:21:05;;;;;;;2.42;1.25;;;;;;;7.55;100.00;95843.84;1030753;28;20027;-68
2021/05/24 00:21:36;;;;;;;2.53;1.20;;;;;;;7.61;100.00;95852.50;1034440;28;20271;-71
2021/05/24 00:22:06;;;;;;;1.80;1.15;;;;;;;7.62;100.00;95848.09;1026090;28;20041;-69
2021/05/24 00:22:37;;;;;;;1.67;1.10;;;;;;;7.62;100.00;95850.72;1026134;28;20019;-67
2021/05/24 00:23:08;;;;;;;2.95;1.20;;;;;;;7.53;100.00;95835.44;1033402;28;20026;-71
2021/05/24 00:23:38;;;;;;;1.52;1.23;;;;;;;7.59;100.00;95844.16;1034165;28;20760;-71
2021/05/24 00:24:09;;;;;;;1.98;1.27;;;;;;;7.50;100.00;95830.69;1030011;28;20096;-72
2021/05/24 00:24:39;;;;;;;3.85;1.30;;;;;;;7.49;100.00;95826.53;1029810;28;20077;-70
2021/05/24 00:25:10;;;;;;;2.42;1.42;;;;;;;7.55;100.00;95828.19;1030040;28;20453;-70
2021/05/24 00:25:40;;;;;;;1.63;1.23;;;;;;;7.53;100.00;95830.22;1030290;28;20480;-66
2021/05/24 00:26:11;;;;;;;4.68;1.40;;;;;;;7.46;100.00;95818.38;1029545;28;20027;-68
2021/05/24 00:26:41;;;;;;;1.63;1.10;;;;;;;7.52;100.00;95835.69;1029926;28;20018;-69
2021/05/24 00:27:13;;;;;;;1.65;1.00;;;;;;;7.50;100.00;95833.31;1030268;28;20038;-70
2021/05/24 00:27:43;;;;;;;2.75;1.50;;;;;;;7.46;100.00;95824.38;1038293;28;20056;-68
2021/05/24 00:28:14;;;;;;;3.88;1.17;;;;;;;7.49;100.00;95831.75;1042402;28;20810;-70
2021/05/24 00:28:47;;;;;;;2.25;1.17;;;;;;;7.48;100.00;95829.38;1038851;28;20022;-68
2021/05/24 00:29:21;;;;;;;2.30;1.45;;;;;;;7.43;100.00;95819.66;1035044;28;20786;-68
2021/05/24 00:29:51;;;;;;;2.53;1.50;;;;;;;7.40;100.00;95822.72;1026775;28;20023;-69
2021/05/24 00:30:23;;;;;;;2.85;1.42;;;;;;;7.42;100.00;95825.91;1027138;28;20265;-68
2021/05/24 00:30:53;;;;;;;3.40;1.20;;;;;;;7.43;100.00;95832.69;1026839;28;20018;-68
2021/05/24 00:31:24;;;;;;;3.60;1.20;;;;;;;7.43;100.00;95824.09;1027062;28;20254;-68
2021/05/24 00:31:54;;;;;;;2.42;1.52;;;;;;;7.42;100.00;95825.13;1035305;28;20034;-68
2021/05/24 00:32:25;;;;;;;1.42;1.17;;;;;;;7.41;100.00;95826.13;1039486;28;20052;-68
2021/05/24 00:32:55;;;;;;;2.25;1.45;;;;;;;7.40;100.00;95821.94;1043022;28;20021;-68
2021/05/24 00:33:26;;;;;;;2.03;1.38;;;;;;;7.38;100.00;95816.16;1043222;28;20025;-68
2021/05/24 00:33:56;;;;;;;1.75;1.20;;;;;;;7.38;100.00;95816.16;1035078;28;20041;-70
2021/05/24 00:34:27;;;;;;;3.83;1.40;;;;;;;7.37;100.00;95822.41;1034823;28;20030;-70
2021/05/24 00:34:57;;;;;;;2.58;1.20;;;;;;;7.30;100.00;95815.53;1026772;28;20035;-69
2021/05/24 00:35:27;;;;;;;2.83;1.30;;;;;;;7.32;100.00;95817.94;1039131;28;20432;-71
2021/05/24 00:35:58;;;;;;;1.83;1.38;;;;;;;7.35;100.00;95827.13;1030267;28;20035;-68
2021/05/24 00:36:28;;;;;;;1.65;1.20;;;;;;;7.33;100.00;95828.13;1030690;28;20027;-68
2021/05/24 00:36:59;;;;;;;2.20;1.20;;;;;;;7.33;100.00;95835.94;1027085;28;20077;-71
2021/05/24 00:37:29;;;;;;;6.80;1.42;;;;;;;7.31;100.00;95832.81;1026748;28;20408;-71
2021/05/24 00:38:00;;;;;;;5.65;1.50;;;;;;;7.31;100.00;95822.38;1031016;28;20014;-71
2021/05/24 00:38:30;;;;;;;5.22;1.75;;;;;;;7.31;100.00;95827.59;1030696;28;20081;-71
2021/05/24 00:39:01;;;;;;;1.60;1.33;;;;;;;7.30;100.00;95828.59;1031352;28;20484;-71
2021/05/24 00:39:31;;;;;;;3.33;1.50;;;;;;;7.29;100.00;95827.03;1029512;28;20022;-70
2021/05/24 00:40:03;;;;;;;3.78;1.52;;;;;;;7.22;100.00;95813.34;1030999;28;21552;-71
2021/05/24 00:40:34;;;;;;;6.20;1.30;;;;;;;7.22;100.00;95809.97;1031163;28;20022;-71
2021/05/24 00:41:05;;;;;;;3.50;1.63;;;;;;;7.29;100.00;95821.81;1027483;28;20271;-71
2021/05/24 00:41:39;;;;;;;3.20;1.65;;;;;;;7.27;100.00;95818.63;1032932;28;20337;-71
2021/05/24 00:42:09;;;;;;;2.55;1.60;;;;;;;7.25;100.00;95828.53;1032138;28;20034;-70
2021/05/24 00:42:40;;;;;;;2.53;1.35;;;;;;;7.28;100.00;95822.84;1031802;28;20702;-68
2021/05/24 00:43:10;;;;;;;3.30;1.35;;;;;;;7.28;100.00;95824.66;1029936;28;20078;-71
2021/05/24 00:43:41;;;;;;;1.40;1.30;;;;;;;7.26;100.00;95819.66;1023621;28;20028;-71
2021/05/24 00:44:11;;;;;;;1.48;1.30;;;;;;;7.26;100.00;95817.06;1031248;28;20511;-68
2021/05/24 00:44:42;;;;;;;1.95;1.60;;;;;;;7.27;100.00;95815.22;1031245;28;20435;-68
2021/05/24 00:45:15;;;;;;;2.17;1.35;;;;;;;7.28;100.00;95814.22;1031149;28;20447;-71
2021/05/24 00:45:46;;;;;;;1.77;1.40;;;;;;;7.28;100.00;95812.41;1030524;28;20026;-70
2021/05/24 00:46:16;;;;;;;2.50;1.13;;;;;;;7.29;100.00;95818.41;1032816;28;20338;-68
2021/05/24 00:46:47;;;;;;;1.58;1.30;;;;;;;7.27;100.00;95810.81;1039050;28;20034;-68
2021/05/24 00:47:17;;;;;;;2.53;1.63;;;;;;;7.25;100.00;95812.88;1035803;28;20041;-69
2021/05/24 00:47:51;;;;;;;1.42;1.33;;;;;;;7.20;100.00;95798.97;1040067;28;20064;-68
2021/05/24 00:48:21;;;;;;;1.65;1.52;;;;;;;7.24;100.00;95808.69;1042179;28;20289;-68
2021/05/24 00:48:52;;;;;;;3.88;1.48;;;;;;;7.28;100.00;95809.78;1039766;28;20696;-68
2021/05/24 00:49:26;;;;;;;2.42;1.20;;;;;;;7.28;100.00;95807.19;1027257;28;20043;-70
2021/05/24 00:49:56;;;;;;;2.10;1.55;;;;;;;7.07;100.00;95766.94;1031390;28;20404;-69
2021/05/24 00:50:27;;;;;;;1.95;1.20;;;;;;;7.31;100.00;95816.38;1031684;28;20289;-69
2021/05/24 00:50:57;;;;;;;2.22;1.50;;;;;;;7.31;100.00;95813.75;1027219;28;20031;-68
2021/05/24 00:51:28;;;;;;;2.00;1.20;;;;;;;7.26;100.00;95796.19;1027334;28;20038;-70
2021/05/24 00:51:58;;;;;;;2.20;1.67;;;;;;;7.30;100.00;95815.53;1034410;28;20026;-70
2021/05/24 00:52:29;;;;;;;2.70;1.50;;;;;;;7.31;100.00;95811.94;1035448;28;20030;-68
2021/05/24 00:52:59;;;;;;;2.95;1.23;;;;;;;7.30;100.00;95812.94;1035837;28;20044;-68
2021/05/24 00:53:30;;;;;;;2.72;1.30;;;;;;;7.30;100.00;95812.16;1031396;28;20034;-68
2021/05/24 00:54:01;;;;;;;3.92;1.40;;;;;;;7.28;100.00;95816.84;1035130;28;20037;-69
2021/05/24 00:54:31;;;;;;;1.45;1.20;;;;;;;7.27;100.00;95808.19;1035691;28;20549;-69
2021/05/24 00:55:03;;;;;;;4.45;1.75;;;;;;;7.27;100.00;95807.41;1031320;28;20037;-68
2021/05/24 00:55:34;;;;;;;2.55;1.17;;;;;;;7.19;100.00;95792.94;1035884;28;20110;-70
2021/05/24 00:56:08;;;;;;;2.13;1.50;;;;;;;7.29;100.00;95813.19;1031264;28;20416;-68
2021/05/24 00:56:38;;;;;;;3.58;1.17;;;;;;;7.31;100.00;95805.91;1032098;28;20294;-69
2021/05/24 00:57:12;;;;;;;3.80;1.27;;;;;;;7.30;100.00;95802.50;1031274;28;20038;-69
2021/05/24 00:57:43;;;;;;;5.68;1.85;;;;;;;7.30;100.00;95799.88;1032136;28;20571;-71
2021/05/24 00:58:14;;;;;;;3.60;1.38;;;;;;;7.28;100.00;95791.53;1026958;28;20478;-68
2021/05/24 00:58:45;;;;;;;2.13;1.35;;;;;;;7.28;100.00;95791.53;1027275;28;20772;-69
2021/05/24 00:59:16;;;;;;;2.30;1.48;;;;;;;7.21;100.00;95779.66;1023081;29;20123;-69
2021/05/24 00:59:46;;;;;;;3.42;1.48;;;;;;;7.28;100.00;95796.75;1023396;29;20262;-67
2021/05/24 01:00:34;;;;;;;2.80;1.20;;;;;;;7.27;100.00;95784.69;1030851;28;20030;-71
2021/05/24 01:01:05;;;;;;;2.70;1.48;;;;;;;7.28;100.00;95794.13;1031020;28;20125;-71
2021/05/24 01:01:35;;;;;;;2.63;1.23;;;;;;;7.28;100.00;95791.53;1031265;28;20277;-70
2021/05/24 01:02:06;;;;;;;3.38;1.50;;;;;;;7.28;100.00;95791.53;1032444;28;20030;-72
2021/05/24 01:02:36;;;;;;;1.42;1.15;;;;;;;7.28;100.00;95795.97;1031286;28;20026;-69
2021/05/24 01:03:07;;;;;;;2.70;1.45;;;;;;;7.27;100.00;95796.97;1031092;28;20045;-71
2021/05/24 01:03:38;;;;;;;1.90;1.30;;;;;;;7.25;100.00;95786.78;1031115;28;20030;-70
2021/05/24 01:04:08;;;;;;;3.03;1.48;;;;;;;7.24;100.00;95790.44;1031147;28;20038;-69
2021/05/24 01:04:39;;;;;;;4.75;1.48;;;;;;;7.26;100.00;95787.56;1035297;28;20459;-69
2021/05/24 01:05:10;;;;;;;3.30;1.63;;;;;;;7.24;100.00;95780.00;1035086;28;20026;-69
2021/05/24 01:05:41;;;;;;;2.85;1.33;;;;;;;7.26;100.00;95787.56;1031294;28;20397;-68
2021/05/24 01:06:11;;;;;;;1.77;1.10;;;;;;;7.15;100.00;95776.19;1026679;28;20034;-69
2021/05/24 01:06:43;;;;;;;2.20;1.42;;;;;;;7.22;100.00;95784.66;1031279;28;20274;-69
2021/05/24 01:07:13;;;;;;;1.80;1.33;;;;;;;7.24;100.00;95787.81;1026896;28;20023;-69
2021/05/24 01:07:43;;;;;;;3.30;1.30;;;;;;;7.24;100.00;95794.84;1035179;28;20257;-69
2021/05/24 01:08:14;;;;;;;2.20;1.33;;;;;;;7.27;100.00;95800.38;1031398;28;20037;-69
2021/05/24 01:08:44;;;;;;;5.28;1.48;;;;;;;7.26;100.00;95804.00;1026824;28;20039;-69
2021/05/24 01:09:16;;;;;;;2.67;1.70;;;;;;;7.26;100.00;95795.41;1031209;28;20416;-68
2021/05/24 01:09:46;;;;;;;2.05;1.48;;;;;;;7.25;100.00;95791.22;1031667;28;20101;-68
2021/05/24 01:10:18;;;;;;;2.85;1.63;;;;;;;7.24;100.00;95790.44;1031306;28;20270;-68
2021/05/24 01:10:49;;;;;;;2.58;1.58;;;;;;;7.16;100.00;95777.78;1031066;28;20049;-68
2021/05/24 01:11:22;;;;;;;2.75;1.55;;;;;;;7.24;100.00;95789.63;1027466;28;20815;-71
2021/05/24 01:11:52;;;;;;;2.72;1.27;;;;;;;7.17;100.00;95773.34;1032385;28;20018;-69
2021/05/24 01:12:23;;;;;;;1.95;1.40;;;;;;;7.17;100.00;95773.34;1027185;28;20262;-70
2021/05/24 01:12:53;;;;;;;2.47;1.13;;;;;;;7.13;100.00;95762.59;1034935;28;20034;-69
2021/05/24 01:13:24;;;;;;;3.13;1.50;;;;;;;7.22;100.00;95784.66;1031119;28;20030;-69
2021/05/24 01:13:54;;;;;;;3.17;1.40;;;;;;;7.15;100.00;95765.75;1035028;28;20025;-70
2021/05/24 01:14:25;;;;;;;1.70;1.33;;;;;;;7.15;100.00;95770.97;1031117;28;20026;-70
2021/05/24 01:14:55;;;;;;;2.80;1.50;;;;;;;7.22;100.00;95776.03;1031164;28;20030;-70
2021/05/24 01:15:26;;;;;;;4.35;1.90;;;;;;;7.21;100.00;95780.47;1035175;28;20030;-70
2021/05/24 01:15:56;;;;;;;1.40;1.30;;;;;;;7.22;100.00;95781.25;1026731;28;20035;-70
2021/05/24 01:16:27;;;;;;;4.72;1.50;;;;;;;7.23;100.00;95777.59;1035393;28;20638;-70
2021/05/24 01:16:57;;;;;;;2.67;1.60;;;;;;;7.25;100.00;95775.56;1030832;28;20022;-70
2021/05/24 01:17:28;;;;;;;4.25;1.63;;;;;;;7.24;100.00;95772.16;1031096;28;20037;-70
2021/05/24 01:17:59;;;;;;;2.65;1.60;;;;;;;7.24;100.00;95769.56;1027071;28;20448;-71
2021/05/24 01:18:29;;;;;;;2.88;1.40;;;;;;;7.16;100.00;95756.91;1027331;28;20173;-71
2021/05/24 01:19:00;;;;;;;2.53;1.67;;;;;;;7.21;100.00;95762.19;1031289;28;20269;-71
2021/05/24 01:19:30;;;;;;;2.53;1.48;;;;;;;7.23;100.00;95764.56;1027122;28;20027;-71
2021/05/24 01:20:01;;;;;;;4.85;1.88;;;;;;;7.23;100.00;95757.50;1031134;28;20096;-71
2021/05/24 01:20:31;;;;;;;2.47;1.65;;;;;;;7.23;100.00;95765.34;1011971;28;564186;-70
2021/05/24 01:21:02;;;;;;;3.20;2.05;;;;;;;7.26;100.00;95758.84;1030831;28;20045;-71
2021/05/24 01:21:32;;;;;;;2.35;1.67;;;;;;;7.26;100.00;95762.25;1023377;28;20511;-70
2021/05/24 01:22:03;;;;;;;3.05;1.70;;;;;;;7.27;100.00;95761.22;1027567;28;20035;-71
2021/05/24 01:22:34;;;;;;;2.45;1.63;;;;;;;7.28;100.00;95754.97;1027490;28;20061;-70
2021/05/24 01:23:42;;;;;;;1.92;1.70;;;;;;;7.25;100.00;95739.03;1031424;28;20272;-70
2021/05/24 01:24:12;;;;;;;4.07;1.45;;;;;;;7.28;100.00;95741.94;1023175;28;20110;-70
2021/05/24 01:24:43;;;;;;;4.63;1.90;;;;;;;7.34;100.00;95753.22;1037954;28;20269;-70
2021/05/24 01:25:14;;;;;;;2.35;1.70;;;;;;;7.28;100.00;95734.09;1031177;28;20022;-71
2021/05/24 01:25:46;;;;;;;3.72;1.98;;;;;;;7.31;100.00;95744.06;1026907;28;20054;-71
2021/05/24 01:26:17;;;;;;;5.00;2.05;;;;;;;7.36;100.00;95747.78;1031175;28;20484;-71
2021/05/24 01:26:47;;;;;;;5.38;1.90;;;;;;;7.36;100.00;95745.94;1028009;28;20277;-70
2021/05/24 01:27:18;;;;;;;4.25;1.70;;;;;;;7.37;100.00;95751.94;1027362;28;20498;-70
2021/05/24 01:27:48;;;;;;;2.40;1.40;;;;;;;7.36;100.00;95745.16;1027382;28;20026;-69
2021/05/24 01:28:20;;;;;;;4.03;1.67;;;;;;;7.36;100.00;95745.16;1027418;28;20049;-71
2021/05/24 01:28:51;;;;;;;1.98;1.50;;;;;;;7.38;100.00;95749.09;1031709;28;20539;-70
2021/05/24 01:29:21;;;;;;;3.95;1.95;;;;;;;7.38;100.00;95748.28;1035300;28;20343;-71
2021/05/24 01:29:52;;;;;;;3.00;1.67;;;;;;;7.38;100.00;95750.91;1034543;28;20061;-70
2021/05/24 01:30:22;;;;;;;9.18;2.13;;;;;;;7.36;100.00;95747.78;1039477;28;20100;-71
2021/05/24 01:30:53;;;;;;;2.58;1.48;;;;;;;7.37;100.00;95742.28;1035348;28;20053;-69
2021/05/24 01:31:23;;;;;;;2.30;1.48;;;;;;;7.37;100.00;95744.91;1032829;28;20111;-70
2021/05/24 01:31:54;;;;;;;2.28;1.65;;;;;;;7.32;100.00;95737.03;1027245;28;20508;-72
2021/05/24 01:32:24;;;;;;;2.30;1.50;;;;;;;7.38;100.00;95741.28;1023434;28;20042;-70
2021/05/24 01:32:54;;;;;;;4.68;1.70;;;;;;;7.37;100.00;95739.69;1023410;28;20023;-70
2021/05/24 01:33:25;;;;;;;3.42;1.90;;;;;;;7.37;100.00;95746.72;1031264;28;20033;-70
2021/05/24 01:33:58;;;;;;;2.03;1.63;;;;;;;7.38;100.00;95732.63;1031663;28;20022;-70
2021/05/24 01:34:28;;;;;;;2.90;1.80;;;;;;;7.30;100.00;95724.19;1035824;28;20076;-70
2021/05/24 01:34:59;;;;;;;3.35;1.50;;;;;;;7.33;100.00;95734.16;1039260;28;20272;-70
2021/05/24 01:35:29;;;;;;;2.72;1.70;;;;;;;7.35;100.00;95733.16;1035794;28;20030;-71
2021/05/24 01:36:00;;;;;;;3.15;1.77;;;;;;;7.36;100.00;95734.72;1030610;28;20563;-70
2021/05/24 01:36:30;;;;;;;2.15;1.63;;;;;;;7.35;100.00;95733.16;1027268;28;20050;-71
2021/05/24 01:37:02;;;;;;;1.90;1.70;;;;;;;7.30;100.00;95732.03;1027541;28;20508;-70
2021/05/24 01:37:32;;;;;;;2.92;1.70;;;;;;;7.26;100.00;95714.50;1035381;28;20022;-70
2021/05/24 01:38:04;;;;;;;3.22;1.80;;;;;;;7.23;100.00;95712.38;1031262;28;20380;-71
2021/05/24 01:38:37;;;;;;;2.28;1.80;;;;;;;7.30;100.00;95732.03;1027041;28;20026;-70
2021/05/24 01:39:07;;;;;;;9.30;2.33;;;;;;;7.27;100.00;95729.91;1027444;28;20313;-70
2021/05/24 01:39:38;;;;;;;2.33;1.63;;;;;;;7.27;100.00;95732.50;1031964;28;20278;-70
2021/05/24 01:40:09;;;;;;;3.65;1.65;;;;;;;7.19;100.00;95730.31;1039028;28;20033;-71
2021/05/24 01:40:40;;;;;;;3.50;1.88;;;;;;;7.25;100.00;95733.81;1039507;28;20499;-70
2021/05/24 01:41:11;;;;;;;1.85;1.50;;;;;;;7.22;100.00;95748.13;1031244;28;20034;-70
2021/05/24 01:41:41;;;;;;;3.53;1.85;;;;;;;7.22;100.00;95744.72;1035074;28;20277;-71
2021/05/24 01:42:12;;;;;;;3.75;2.10;;;;;;;7.25;100.00;95749.47;1035456;28;20408;-71
2021/05/24 01:42:43;;;;;;;3.58;2.33;;;;;;;7.18;100.00;95730.59;1032465;28;20113;-70
2021/05/24 01:43:14;;;;;;;3.28;1.80;;;;;;;7.17;100.00;95727.16;1027031;28;20500;-70
2021/05/24 01:43:45;;;;;;;3.13;1.52;;;;;;;7.22;100.00;95735.06;1035167;28;20116;-71
2021/05/24 01:44:35;;;;;;;3.35;2.08;;;;;;;7.16;100.00;95724.81;1031177;28;20698;-71
2021/05/24 01:45:06;;;;;;;3.05;1.75;;;;;;;7.24;100.00;95733.00;1030807;28;20030;-69
2021/05/24 01:45:38;;;;;;;4.07;1.90;;;;;;;7.24;100.00;95725.19;1028505;28;20044;-69
2021/05/24 01:46:09;;;;;;;4.05;1.73;;;;;;;7.13;100.00;95709.63;1036032;28;20280;-69
2021/05/24 01:46:39;;;;;;;4.07;1.65;;;;;;;7.23;100.00;95726.19;1040907;28;20300;-70
2021/05/24 01:47:10;;;;;;;1.98;1.70;;;;;;;7.24;100.00;95719.97;1043012;28;20024;-70
2021/05/24 01:47:43;;;;;;;4.60;1.70;;;;;;;7.17;100.00;95716.72;1043704;28;20024;-71
2021/05/24 01:48:13;;;;;;;5.35;1.83;;;;;;;7.23;100.00;95725.41;1042637;28;20029;-69
2021/05/24 01:48:44;;;;;;;2.92;1.90;;;;;;;7.17;100.00;95718.53;1039107;28;20306;-69
2021/05/24 01:49:14;;;;;;;2.85;1.65;;;;;;;7.25;100.00;95731.97;1030912;28;20045;-69
2021/05/24 01:49:47;;;;;;;4.00;1.92;;;;;;;7.24;100.00;95730.41;1026973;28;20468;-70
2021/05/24 01:50:17;;;;;;;3.58;1.80;;;;;;;7.24;100.00;95738.25;1033843;28;20022;-71
2021/05/24 01:50:48;;;;;;;2.80;1.70;;;;;;;7.24;100.00;95733.00;1031367;28;20265;-70
2021/05/24 01:51:18;;;;;;;3.10;1.80;;;;;;;7.25;100.00;95736.41;1035332;28;20025;-70
2021/05/24 01:51:49;;;;;;;3.00;2.05;;;;;;;7.26;100.00;95740.59;1032472;28;20086;-70
2021/05/24 01:52:20;;;;;;;2.05;1.85;;;;;;;7.25;100.00;95739.81;1035036;28;20549;-70
2021/05/24 01:52:50;;;;;;;2.50;1.70;;;;;;;7.23;100.00;95731.41;1039041;28;20026;-70
2021/05/24 01:53:21;;;;;;;4.43;2.30;;;;;;;7.19;100.00;95719.88;1031107;28;20579;-70
2021/05/24 01:53:51;;;;;;;2.72;1.90;;;;;;;7.25;100.00;95728.59;1026849;28;20023;-70
2021/05/24 01:54:22;;;;;;;2.88;2.03;;;;;;;7.25;100.00;95724.16;1026919;28;20023;-70
2021/05/24 01:54:52;;;;;;;3.33;2.08;;;;;;;7.24;100.00;95722.56;1027181;28;20543;-70
2021/05/24 01:55:23;;;;;;;2.22;1.67;;;;;;;7.26;100.00;95720.50;1033752;28;20490;-70
2021/05/24 01:55:53;;;;;;;4.63;1.92;;;;;;;7.17;100.00;95706.28;1025604;28;20472;-72
2021/05/24 01:56:24;;;;;;;2.28;2.08;;;;;;;7.26;100.00;95720.50;1026603;28;20038;-70
2021/05/24 01:56:54;;;;;;;3.53;1.83;;;;;;;7.25;100.00;95716.31;1033326;28;20554;-69
2021/05/24 01:57:25;;;;;;;2.10;1.60;;;;;;;7.27;100.00;95716.84;1034959;28;20478;-70
2021/05/24 01:57:56;;;;;;;3.15;1.92;;;;;;;7.30;100.00;95721.59;1027030;28;20101;-69
2021/05/24 01:58:27;;;;;;;2.10;1.92;;;;;;;7.29;100.00;95706.97;1034665;28;20022;-70
2021/05/24 01:58:58;;;;;;;2.72;1.85;;;;;;;7.24;100.00;95703.50;1027097;28;20179;-69
2021/05/24 01:59:28;;;;;;;3.97;2.00;;;;;;;7.27;100.00;95714.25;1030855;28;20266;-70
2021/05/24 01:59:59;;;;;;;2.38;2.00;;;;;;;7.27;100.00;95711.63;1027101;28;20031;-72
2021/05/24 02:00:29;;;;;;;2.85;2.00;;;;;;;7.25;100.00;95703.28;1034569;28;20026;-69
2021/05/24 02:01:07;;;;;;;4.18;1.88;;;;;;;7.27;100.00;95713.44;1031598;28;20050;-68
2021/05/24 02:01:38;;;;;;;3.60;2.03;;;;;;;7.27;100.00;95711.63;1036172;28;20120;-69
2021/05/24 02:02:08;;;;;;;6.07;1.85;;;;;;;7.27;100.00;95711.63;1029260;28;20285;-69
2021/05/24 02:02:43;;;;;;;3.22;1.80;;;;;;;7.25;100.00;95710.31;1026981;28;20030;-70
2021/05/24 02:03:13;;;;;;;2.65;1.70;;;;;;;7.26;100.00;95709.28;1030842;28;20031;-70
2021/05/24 02:03:46;;;;;;;4.03;1.65;;;;;;;7.25;100.00;95708.50;1034802;28;20261;-69
2021/05/24 02:04:16;;;;;;;3.63;1.70;;;;;;;7.25;100.00;95703.28;1036047;28;20491;-70
2021/05/24 02:04:47;;;;;;;3.15;1.77;;;;;;;7.23;100.00;95697.50;1034859;28;20273;-70
2021/05/24 02:05:18;;;;;;;1.90;1.65;;;;;;;7.24;100.00;95701.69;1026795;28;20026;-70
2021/05/24 02:05:48;;;;;;;4.03;1.52;;;;;;;7.23;100.00;95702.72;1026532;28;20030;-70
2021/05/24 02:06:19;;;;;;;4.72;1.88;;;;;;;7.21;100.00;95702.19;1027098;28;20015;-70
2021/05/24 02:06:49;;;;;;;3.70;2.10;;;;;;;7.22;100.00;95695.91;1031363;28;20026;-70
2021/05/24 02:07:20;;;;;;;3.13;2.33;;;;;;;7.21;100.00;95696.97;1038905;28;20463;-70
2021/05/24 02:07:50;;;;;;;4.70;1.88;;;;;;;7.20;100.00;95691.97;1039052;28;20434;-69
2021/05/24 02:08:24;;;;;;;2.17;1.75;;;;;;;7.21;100.00;95696.16;1031134;28;20080;-69
2021/05/24 02:08:55;;;;;;;1.95;1.60;;;;;;;7.15;100.00;95695.31;1026739;28;20525;-69
2021/05/24 02:09:25;;;;;;;4.85;1.58;;;;;;;7.20;100.00;95705.81;1026887;28;20258;-70
2021/05/24 02:09:56;;;;;;;4.60;1.73;;;;;;;7.21;100.00;95703.97;1027552;28;20481;-71
2021/05/24 02:10:28;;;;;;;3.08;1.80;;;;;;;7.19;100.00;95699.00;1031955;28;20061;-69
2021/05/24 02:10:58;;;;;;;4.97;2.80;;;;;;;7.20;100.00;95705.81;1039072;28;20028;-70
2021/05/24 02:11:29;;;;;;;2.72;1.77;;;;;;;7.16;100.00;95699.50;1038981;28;20336;-71
2021/05/24 02:11:59;;;;;;;2.30;1.75;;;;;;;7.12;100.00;95693.19;1035017;28;20172;-70
2021/05/24 02:12:30;;;;;;;3.53;1.60;;;;;;;7.17;100.00;95698.44;1030706;28;20022;-70
2021/05/24 02:13:00;;;;;;;3.65;1.90;;;;;;;7.18;100.00;95694.06;1030847;28;20526;-70
2021/05/24 02:13:31;;;;;;;2.63;1.98;;;;;;;7.18;100.00;95697.44;1031076;28;20026;-70
2021/05/24 02:14:01;;;;;;;3.53;1.70;;;;;;;7.18;100.00;95691.44;1035184;28;20428;-70
2021/05/24 02:14:35;;;;;;;4.25;1.80;;;;;;;7.11;100.00;95675.97;1038982;28;20025;-71
2021/05/24 02:15:07;;;;;;;4.13;2.13;;;;;;;7.14;100.00;95682.50;1038487;28;20264;-71
2021/05/24 02:15:39;;;;;;;1.92;1.50;;;;;;;7.10;100.00;95679.59;1034847;28;20049;-70
2021/05/24 02:16:09;;;;;;;1.60;1.50;;;;;;;7.17;100.00;95690.63;1028734;28;20377;-68
2021/05/24 02:16:44;;;;;;;1.40;1.30;;;;;;;7.14;100.00;95683.28;1035555;28;20296;-70
2021/05/24 02:17:15;;;;;;;2.85;1.80;;;;;;;7.17;100.00;95690.63;1038827;28;20044;-70
2021/05/24 02:17:45;;;;;;;3.45;1.45;;;;;;;7.17;100.00;95690.63;1036762;28;20284;-70
2021/05/24 02:18:16;;;;;;;3.08;2.03;;;;;;;7.16;100.00;95691.66;1030805;28;20050;-71
2021/05/24 02:18:46;;;;;;;2.72;1.77;;;;;;;7.19;100.00;95695.63;1033229;28;20373;-71
2021/05/24 02:19:18;;;;;;;3.35;1.80;;;;;;;7.17;100.00;95693.22;1038848;28;20099;-69
2021/05/24 02:19:49;;;;;;;4.13;1.60;;;;;;;7.20;100.00;95699.78;1037314;28;20097;-69
2021/05/24 02:20:23;;;;;;;3.10;1.67;;;;;;;7.15;100.00;95684.09;1039176;28;20268;-69
2021/05/24 02:20:54;;;;;;;2.88;1.60;;;;;;;7.19;100.00;95693.78;1034728;28;20264;-70
2021/05/24 02:21:24;;;;;;;3.47;1.52;;;;;;;7.21;100.00;95690.94;1031123;28;20328;-71
2021/05/24 02:21:54;;;;;;;3.15;2.00;;;;;;;7.19;100.00;95691.19;1029990;28;20030;-67
2021/05/24 02:22:25;;;;;;;3.63;1.50;;;;;;;7.19;100.00;95685.19;1027899;28;20030;-70
2021/05/24 02:22:56;;;;;;;2.78;1.83;;;;;;;7.16;100.00;95686.44;1034760;28;20022;-69
2021/05/24 02:23:26;;;;;;;2.42;1.42;;;;;;;7.15;100.00;95682.25;1026841;28;20023;-70
2021/05/24 02:23:57;;;;;;;4.18;2.00;;;;;;;7.16;100.00;95683.06;1026738;28;20266;-67
2021/05/24 02:24:28;;;;;;;2.83;1.67;;;;;;;7.12;100.00;95677.53;1022826;29;20054;-70
2021/05/24 02:24:58;;;;;;;1.77;1.58;;;;;;;7.15;100.00;95682.25;1031034;28;20136;-69
2021/05/24 02:25:28;;;;;;;3.63;1.48;;;;;;;7.16;100.00;95683.06;1034679;28;20026;-69
2021/05/24 02:25:59;;;;;;;2.85;1.60;;;;;;;7.16;100.00;95683.84;1034236;28;20487;-71
2021/05/24 02:26:30;;;;;;;3.42;1.42;;;;;;;7.08;100.00;95666.00;1030872;28;20030;-71
2021/05/24 02:27:00;;;;;;;2.33;1.65;;;;;;;7.14;100.00;95670.22;1018897;29;20036;-69